sensor_id;sensor_type;location;lat;lon;timestamp;temperature;humidity
29547;DHT22;40782;47.264;11.330;2024-02-04T00:00:29;4.10;99.90
29547;DHT22;40782;47.264;11.330;2024-02-04T00:02:56;4.10;99.90
29547;DHT22;40782;47.264;11.330;2024-02-04T00:05:24;4.10;99.90
29547;DHT22;40782;47.264;11.330;2024-02-04T00:07:52;4.00;99.90
29547;DHT22;40782;47.264;11.330;2024-02-04T00:10:20;4.00;99.90
29547;DHT22;40782;47.264;11.330;2024-02-04T00:12:47;3.90;99.90
29547;DHT22;40782;47.264;11.330;2024-02-04T00:15:14;3.90;99.90
29547;DHT22;40782;47.264;11.330;2024-02-04T00:17:41;3.90;99.90
29547;DHT22;40782;47.264;11.330;2024-02-04T00:20:09;3.90;99.90
29547;DHT22;40782;47.264;11.330;2024-02-04T00:22:36;3.80;99.90
29547;DHT22;40782;47.264;11.330;2024-02-04T00:25:05;3.80;99.90
29547;DHT22;40782;47.264;11.330;2024-02-04T00:27:36;3.80;99.90
29547;DHT22;40782;47.264;11.330;2024-02-04T00:30:03;3.80;99.90
29547;DHT22;40782;47.264;11.330;2024-02-04T00:32:31;3.80;99.90
29547;DHT22;40782;47.264;11.330;2024-02-04T00:34:58;3.70;99.90
29547;DHT22;40782;47.264;11.330;2024-02-04T00:37:25;3.70;99.90
29547;DHT22;40782;47.264;11.330;2024-02-04T00:39:52;3.60;99.90
29547;DHT22;40782;47.264;11.330;2024-02-04T00:42:21;3.60;99.90
29547;DHT22;40782;47.264;11.330;2024-02-04T00:44:48;3.50;99.90
29547;DHT22;40782;47.264;11.330;2024-02-04T00:47:15;3.50;99.90
29547;DHT22;40782;47.264;11.330;2024-02-04T00:49:42;3.40;99.90
29547;DHT22;40782;47.264;11.330;2024-02-04T00:52:09;3.40;99.90
29547;DHT22;40782;47.264;11.330;2024-02-04T00:54:36;3.40;99.90
29547;DHT22;40782;47.264;11.330;2024-02-04T00:57:04;3.40;99.90
29547;DHT22;40782;47.264;11.330;2024-02-04T00:59:32;3.30;99.90
29547;DHT22;40782;47.264;11.330;2024-02-04T01:01:59;3.30;99.90
29547;DHT22;40782;47.264;11.330;2024-02-04T01:04:27;3.30;99.90
29547;DHT22;40782;47.264;11.330;2024-02-04T01:06:54;3.30;99.90
29547;DHT22;40782;47.264;11.330;2024-02-04T01:09:21;3.30;99.90
29547;DHT22;40782;47.264;11.330;2024-02-04T01:11:48;3.30;99.90
29547;DHT22;40782;47.264;11.330;2024-02-04T01:14:16;3.30;99.90
29547;DHT22;40782;47.264;11.330;2024-02-04T01:16:44;3.40;99.90
29547;DHT22;40782;47.264;11.330;2024-02-04T01:19:12;3.30;99.90
29547;DHT22;40782;47.264;11.330;2024-02-04T01:21:39;3.30;99.90
29547;DHT22;40782;47.264;11.330;2024-02-04T01:24:06;3.20;99.90
29547;DHT22;40782;47.264;11.330;2024-02-04T01:26:33;3.20;99.90
29547;DHT22;40782;47.264;11.330;2024-02-04T01:29:00;3.10;99.90
29547;DHT22;40782;47.264;11.330;2024-02-04T01:31:28;3.10;99.90
29547;DHT22;40782;47.264;11.330;2024-02-04T01:33:56;3.00;99.90
29547;DHT22;40782;47.264;11.330;2024-02-04T01:36:23;3.00;99.90
29547;DHT22;40782;47.264;11.330;2024-02-04T01:38:50;3.00;99.90
29547;DHT22;40782;47.264;11.330;2024-02-04T01:41:17;3.00;99.90
29547;DHT22;40782;47.264;11.330;2024-02-04T01:43:45;3.10;99.90
29547;DHT22;40782;47.264;11.330;2024-02-04T01:46:12;3.10;99.90
29547;DHT22;40782;47.264;11.330;2024-02-04T01:48:40;3.00;99.90
29547;DHT22;40782;47.264;11.330;2024-02-04T01:51:09;3.00;99.90
29547;DHT22;40782;47.264;11.330;2024-02-04T01:53:38;2.90;99.90
29547;DHT22;40782;47.264;11.330;2024-02-04T01:56:06;2.90;99.90
29547;DHT22;40782;47.264;11.330;2024-02-04T01:58:34;2.90;99.90
29547;DHT22;40782;47.264;11.330;2024-02-04T02:01:02;2.90;99.90
29547;DHT22;40782;47.264;11.330;2024-02-04T02:03:31;2.80;99.90
29547;DHT22;40782;47.264;11.330;2024-02-04T02:05:59;2.80;99.90
29547;DHT22;40782;47.264;11.330;2024-02-04T02:08:27;2.80;99.90
29547;DHT22;40782;47.264;11.330;2024-02-04T02:11:01;2.80;99.90
29547;DHT22;40782;47.264;11.330;2024-02-04T02:13:32;2.70;99.90
29547;DHT22;40782;47.264;11.330;2024-02-04T02:16:05;2.70;99.90
29547;DHT22;40782;47.264;11.330;2024-02-04T02:18:40;2.70;99.90
29547;DHT22;40782;47.264;11.330;2024-02-04T02:21:24;2.70;99.90
29547;DHT22;40782;47.264;11.330;2024-02-04T02:24:03;2.70;99.90
29547;DHT22;40782;47.264;11.330;2024-02-04T02:26:33;2.60;99.90
29547;DHT22;40782;47.264;11.330;2024-02-04T02:29:03;2.60;99.90
29547;DHT22;40782;47.264;11.330;2024-02-04T02:31:31;2.60;99.90
29547;DHT22;40782;47.264;11.330;2024-02-04T02:33:58;2.60;99.90
29547;DHT22;40782;47.264;11.330;2024-02-04T02:36:29;2.60;99.90
29547;DHT22;40782;47.264;11.330;2024-02-04T02:39:07;2.60;99.90
29547;DHT22;40782;47.264;11.330;2024-02-04T02:41:38;2.50;99.90
29547;DHT22;40782;47.264;11.330;2024-02-04T02:44:07;2.40;99.90
29547;DHT22;40782;47.264;11.330;2024-02-04T02:46:36;2.40;99.90
29547;DHT22;40782;47.264;11.330;2024-02-04T02:49:03;2.40;99.90
29547;DHT22;40782;47.264;11.330;2024-02-04T02:51:31;2.50;99.90
29547;DHT22;40782;47.264;11.330;2024-02-04T02:53:58;2.50;99.90
29547;DHT22;40782;47.264;11.330;2024-02-04T02:56:25;2.50;99.90
29547;DHT22;40782;47.264;11.330;2024-02-04T02:58:54;2.50;99.90
29547;DHT22;40782;47.264;11.330;2024-02-04T03:01:21;2.50;99.90
29547;DHT22;40782;47.264;11.330;2024-02-04T03:03:49;2.40;99.90
29547;DHT22;40782;47.264;11.330;2024-02-04T03:06:16;2.40;99.90
29547;DHT22;40782;47.264;11.330;2024-02-04T03:08:43;2.40;99.90
29547;DHT22;40782;47.264;11.330;2024-02-04T03:11:10;2.30;99.90
29547;DHT22;40782;47.264;11.330;2024-02-04T03:13:38;2.30;99.90
29547;DHT22;40782;47.264;11.330;2024-02-04T03:16:11;2.30;99.90
29547;DHT22;40782;47.264;11.330;2024-02-04T03:18:39;2.30;99.90
29547;DHT22;40782;47.264;11.330;2024-02-04T03:21:12;2.30;99.90
29547;DHT22;40782;47.264;11.330;2024-02-04T03:23:40;2.40;99.90
29547;DHT22;40782;47.264;11.330;2024-02-04T03:26:08;2.40;99.90
29547;DHT22;40782;47.264;11.330;2024-02-04T03:28:35;2.30;99.90
29547;DHT22;40782;47.264;11.330;2024-02-04T03:31:03;2.20;99.90
29547;DHT22;40782;47.264;11.330;2024-02-04T03:33:31;2.20;99.90
29547;DHT22;40782;47.264;11.330;2024-02-04T03:35:58;2.20;99.90
29547;DHT22;40782;47.264;11.330;2024-02-04T03:38:25;2.10;99.90
29547;DHT22;40782;47.264;11.330;2024-02-04T03:40:54;2.10;99.90
29547;DHT22;40782;47.264;11.330;2024-02-04T03:43:21;2.10;99.90
29547;DHT22;40782;47.264;11.330;2024-02-04T03:45:48;2.10;99.90
29547;DHT22;40782;47.264;11.330;2024-02-04T03:48:15;2.10;99.90
29547;DHT22;40782;47.264;11.330;2024-02-04T03:50:43;2.10;99.90
29547;DHT22;40782;47.264;11.330;2024-02-04T03:53:11;2.10;99.90
29547;DHT22;40782;47.264;11.330;2024-02-04T03:55:38;2.10;99.90
29547;DHT22;40782;47.264;11.330;2024-02-04T03:58:05;2.10;99.90
29547;DHT22;40782;47.264;11.330;2024-02-04T04:00:32;2.10;99.90
29547;DHT22;40782;47.264;11.330;2024-02-04T04:02:59;2.10;99.90
29547;DHT22;40782;47.264;11.330;2024-02-04T04:05:26;2.10;99.90
29547;DHT22;40782;47.264;11.330;2024-02-04T04:07:55;2.10;99.90
29547;DHT22;40782;47.264;11.330;2024-02-04T04:10:22;2.10;99.90
29547;DHT22;40782;47.264;11.330;2024-02-04T04:12:49;2.10;99.90
29547;DHT22;40782;47.264;11.330;2024-02-04T04:15:17;2.10;99.90
29547;DHT22;40782;47.264;11.330;2024-02-04T04:17:44;2.10;99.90
29547;DHT22;40782;47.264;11.330;2024-02-04T04:20:12;2.10;99.90
29547;DHT22;40782;47.264;11.330;2024-02-04T04:22:39;2.10;99.90
29547;DHT22;40782;47.264;11.330;2024-02-04T04:25:09;2.00;99.90
29547;DHT22;40782;47.264;11.330;2024-02-04T04:27:36;2.10;99.90
29547;DHT22;40782;47.264;11.330;2024-02-04T04:30:04;2.10;99.90
29547;DHT22;40782;47.264;11.330;2024-02-04T04:32:31;2.10;99.90
29547;DHT22;40782;47.264;11.330;2024-02-04T04:34:58;2.10;99.90
29547;DHT22;40782;47.264;11.330;2024-02-04T04:37:25;2.10;99.90
29547;DHT22;40782;47.264;11.330;2024-02-04T04:39:52;2.10;99.90
29547;DHT22;40782;47.264;11.330;2024-02-04T04:42:21;2.00;99.90
29547;DHT22;40782;47.264;11.330;2024-02-04T04:44:49;2.00;99.90
29547;DHT22;40782;47.264;11.330;2024-02-04T04:47:15;2.00;99.90
29547;DHT22;40782;47.264;11.330;2024-02-04T04:49:42;2.00;99.90
29547;DHT22;40782;47.264;11.330;2024-02-04T04:52:09;2.10;99.90
29547;DHT22;40782;47.264;11.330;2024-02-04T04:54:36;2.10;99.90
29547;DHT22;40782;47.264;11.330;2024-02-04T04:57:04;2.10;99.90
29547;DHT22;40782;47.264;11.330;2024-02-04T04:59:33;2.20;99.90
29547;DHT22;40782;47.264;11.330;2024-02-04T05:02:02;2.20;99.90
29547;DHT22;40782;47.264;11.330;2024-02-04T05:04:29;2.30;99.90
29547;DHT22;40782;47.264;11.330;2024-02-04T05:06:57;2.30;99.90
29547;DHT22;40782;47.264;11.330;2024-02-04T05:09:24;2.40;99.90
29547;DHT22;40782;47.264;11.330;2024-02-04T05:11:51;2.50;99.90
29547;DHT22;40782;47.264;11.330;2024-02-04T05:14:18;2.50;99.90
29547;DHT22;40782;47.264;11.330;2024-02-04T05:16:48;2.40;99.90
29547;DHT22;40782;47.264;11.330;2024-02-04T05:19:15;2.40;99.90
29547;DHT22;40782;47.264;11.330;2024-02-04T05:21:43;2.40;99.90
29547;DHT22;40782;47.264;11.330;2024-02-04T05:24:10;2.40;99.90
29547;DHT22;40782;47.264;11.330;2024-02-04T05:26:37;2.30;99.90
29547;DHT22;40782;47.264;11.330;2024-02-04T05:29:04;2.30;99.90
29547;DHT22;40782;47.264;11.330;2024-02-04T05:31:31;2.30;99.90
29547;DHT22;40782;47.264;11.330;2024-02-04T05:34:05;2.30;99.90
29547;DHT22;40782;47.264;11.330;2024-02-04T05:36:33;2.30;99.90
29547;DHT22;40782;47.264;11.330;2024-02-04T05:39:09;2.20;99.90
29547;DHT22;40782;47.264;11.330;2024-02-04T05:41:37;2.20;99.90
29547;DHT22;40782;47.264;11.330;2024-02-04T05:44:04;2.30;99.90
29547;DHT22;40782;47.264;11.330;2024-02-04T05:46:32;2.30;99.90
29547;DHT22;40782;47.264;11.330;2024-02-04T05:49:00;2.30;99.90
29547;DHT22;40782;47.264;11.330;2024-02-04T05:51:27;2.30;99.90
29547;DHT22;40782;47.264;11.330;2024-02-04T05:53:55;2.30;99.90
29547;DHT22;40782;47.264;11.330;2024-02-04T05:56:22;2.30;99.90
29547;DHT22;40782;47.264;11.330;2024-02-04T05:58:49;2.20;99.90
29547;DHT22;40782;47.264;11.330;2024-02-04T06:01:16;2.20;99.90
29547;DHT22;40782;47.264;11.330;2024-02-04T06:03:44;2.20;99.90
29547;DHT22;40782;47.264;11.330;2024-02-04T06:06:16;2.20;99.90
29547;DHT22;40782;47.264;11.330;2024-02-04T06:08:45;2.20;99.90
29547;DHT22;40782;47.264;11.330;2024-02-04T06:11:12;2.20;99.90
29547;DHT22;40782;47.264;11.330;2024-02-04T06:13:41;2.20;99.90
29547;DHT22;40782;47.264;11.330;2024-02-04T06:16:08;2.10;99.90
29547;DHT22;40782;47.264;11.330;2024-02-04T06:18:37;2.00;99.90
29547;DHT22;40782;47.264;11.330;2024-02-04T06:21:05;2.00;99.90
29547;DHT22;40782;47.264;11.330;2024-02-04T06:23:34;2.00;99.90
29547;DHT22;40782;47.264;11.330;2024-02-04T06:26:01;2.00;99.90
29547;DHT22;40782;47.264;11.330;2024-02-04T06:28:28;2.00;99.90
29547;DHT22;40782;47.264;11.330;2024-02-04T06:30:56;2.00;99.90
29547;DHT22;40782;47.264;11.330;2024-02-04T06:33:23;2.00;99.90
29547;DHT22;40782;47.264;11.330;2024-02-04T06:35:50;2.00;99.90
29547;DHT22;40782;47.264;11.330;2024-02-04T06:38:17;2.00;99.90
29547;DHT22;40782;47.264;11.330;2024-02-04T06:40:46;2.00;99.90
29547;DHT22;40782;47.264;11.330;2024-02-04T06:43:13;2.00;99.90
29547;DHT22;40782;47.264;11.330;2024-02-04T06:45:40;2.00;99.90
29547;DHT22;40782;47.264;11.330;2024-02-04T06:48:21;2.00;99.90
29547;DHT22;40782;47.264;11.330;2024-02-04T06:50:51;2.00;99.90
29547;DHT22;40782;47.264;11.330;2024-02-04T06:53:18;2.00;99.90
29547;DHT22;40782;47.264;11.330;2024-02-04T06:55:46;2.10;99.90
29547;DHT22;40782;47.264;11.330;2024-02-04T06:58:14;2.10;99.90
29547;DHT22;40782;47.264;11.330;2024-02-04T07:00:41;2.10;99.90
29547;DHT22;40782;47.264;11.330;2024-02-04T07:03:08;2.10;99.90
29547;DHT22;40782;47.264;11.330;2024-02-04T07:05:37;2.10;99.90
29547;DHT22;40782;47.264;11.330;2024-02-04T07:08:04;2.10;99.90
29547;DHT22;40782;47.264;11.330;2024-02-04T07:10:31;2.10;99.90
29547;DHT22;40782;47.264;11.330;2024-02-04T07:13:00;2.10;99.90
29547;DHT22;40782;47.264;11.330;2024-02-04T07:15:27;2.20;99.90
29547;DHT22;40782;47.264;11.330;2024-02-04T07:17:54;2.20;99.90
29547;DHT22;40782;47.264;11.330;2024-02-04T07:20:21;2.30;99.90
29547;DHT22;40782;47.264;11.330;2024-02-04T07:22:48;2.30;99.90
29547;DHT22;40782;47.264;11.330;2024-02-04T07:25:15;2.30;99.90
29547;DHT22;40782;47.264;11.330;2024-02-04T07:27:43;2.30;99.90
29547;DHT22;40782;47.264;11.330;2024-02-04T07:30:12;2.30;99.90
29547;DHT22;40782;47.264;11.330;2024-02-04T07:32:39;2.40;99.90
29547;DHT22;40782;47.264;11.330;2024-02-04T07:35:07;2.40;99.90
29547;DHT22;40782;47.264;11.330;2024-02-04T07:37:34;2.40;99.90
29547;DHT22;40782;47.264;11.330;2024-02-04T07:40:02;2.40;99.90
29547;DHT22;40782;47.264;11.330;2024-02-04T07:42:31;2.40;99.90
29547;DHT22;40782;47.264;11.330;2024-02-04T07:44:58;2.40;99.90
29547;DHT22;40782;47.264;11.330;2024-02-04T07:47:27;2.40;99.90
29547;DHT22;40782;47.264;11.330;2024-02-04T07:49:54;2.40;99.90
29547;DHT22;40782;47.264;11.330;2024-02-04T07:52:21;2.40;99.90
29547;DHT22;40782;47.264;11.330;2024-02-04T07:54:48;2.50;99.90
29547;DHT22;40782;47.264;11.330;2024-02-04T07:57:15;2.60;99.90
29547;DHT22;40782;47.264;11.330;2024-02-04T07:59:43;2.70;99.90
29547;DHT22;40782;47.264;11.330;2024-02-04T08:02:10;2.80;99.90
29547;DHT22;40782;47.264;11.330;2024-02-04T08:04:40;2.90;99.90
29547;DHT22;40782;47.264;11.330;2024-02-04T08:07:07;3.10;99.90
29547;DHT22;40782;47.264;11.330;2024-02-04T08:09:34;3.10;99.90
29547;DHT22;40782;47.264;11.330;2024-02-04T08:12:01;3.20;99.90
29547;DHT22;40782;47.264;11.330;2024-02-04T08:14:29;3.30;99.90
29547;DHT22;40782;47.264;11.330;2024-02-04T08:16:56;3.30;99.90
29547;DHT22;40782;47.264;11.330;2024-02-04T08:19:23;3.40;99.90
29547;DHT22;40782;47.264;11.330;2024-02-04T08:21:52;3.40;99.90
29547;DHT22;40782;47.264;11.330;2024-02-04T08:24:20;3.40;99.90
29547;DHT22;40782;47.264;11.330;2024-02-04T08:26:48;3.40;99.90
29547;DHT22;40782;47.264;11.330;2024-02-04T08:29:15;3.40;99.90
29547;DHT22;40782;47.264;11.330;2024-02-04T08:31:42;3.40;99.90
29547;DHT22;40782;47.264;11.330;2024-02-04T08:34:09;3.50;99.90
29547;DHT22;40782;47.264;11.330;2024-02-04T08:36:37;3.50;99.90
29547;DHT22;40782;47.264;11.330;2024-02-04T08:39:05;3.50;99.90
29547;DHT22;40782;47.264;11.330;2024-02-04T08:41:32;3.60;99.90
29547;DHT22;40782;47.264;11.330;2024-02-04T08:43:59;3.60;99.90
29547;DHT22;40782;47.264;11.330;2024-02-04T08:46:27;3.60;99.90
29547;DHT22;40782;47.264;11.330;2024-02-04T08:48:54;3.70;99.90
29547;DHT22;40782;47.264;11.330;2024-02-04T08:51:21;3.70;99.90
29547;DHT22;40782;47.264;11.330;2024-02-04T08:53:48;3.80;99.90
29547;DHT22;40782;47.264;11.330;2024-02-04T08:56:17;3.80;99.90
29547;DHT22;40782;47.264;11.330;2024-02-04T08:58:45;3.90;99.90
29547;DHT22;40782;47.264;11.330;2024-02-04T09:01:12;3.90;99.90
29547;DHT22;40782;47.264;11.330;2024-02-04T09:03:39;4.00;99.90
29547;DHT22;40782;47.264;11.330;2024-02-04T09:06:06;4.00;99.90
29547;DHT22;40782;47.264;11.330;2024-02-04T09:08:34;4.00;99.90
29547;DHT22;40782;47.264;11.330;2024-02-04T09:11:02;4.00;99.90
29547;DHT22;40782;47.264;11.330;2024-02-04T09:13:30;4.10;99.90
29547;DHT22;40782;47.264;11.330;2024-02-04T09:15:57;4.20;99.90
29547;DHT22;40782;47.264;11.330;2024-02-04T09:18:25;4.20;99.90
29547;DHT22;40782;47.264;11.330;2024-02-04T09:20:52;4.30;99.90
29547;DHT22;40782;47.264;11.330;2024-02-04T09:23:21;4.40;99.90
29547;DHT22;40782;47.264;11.330;2024-02-04T09:25:57;4.50;99.90
29547;DHT22;40782;47.264;11.330;2024-02-04T09:28:24;4.70;99.90
29547;DHT22;40782;47.264;11.330;2024-02-04T09:30:53;4.80;99.90
29547;DHT22;40782;47.264;11.330;2024-02-04T09:33:20;4.90;99.90
29547;DHT22;40782;47.264;11.330;2024-02-04T09:35:47;5.00;99.90
29547;DHT22;40782;47.264;11.330;2024-02-04T09:38:15;5.10;99.90
29547;DHT22;40782;47.264;11.330;2024-02-04T09:40:42;5.30;99.90
29547;DHT22;40782;47.264;11.330;2024-02-04T09:43:09;5.40;99.90
29547;DHT22;40782;47.264;11.330;2024-02-04T09:45:37;5.50;99.90
29547;DHT22;40782;47.264;11.330;2024-02-04T09:48:08;5.60;99.90
29547;DHT22;40782;47.264;11.330;2024-02-04T09:50:39;5.60;99.90
29547;DHT22;40782;47.264;11.330;2024-02-04T09:53:07;5.80;99.90
29547;DHT22;40782;47.264;11.330;2024-02-04T09:55:37;5.90;99.90
29547;DHT22;40782;47.264;11.330;2024-02-04T09:58:06;6.00;99.90
29547;DHT22;40782;47.264;11.330;2024-02-04T10:00:34;6.10;99.90
29547;DHT22;40782;47.264;11.330;2024-02-04T10:03:03;6.20;99.90
29547;DHT22;40782;47.264;11.330;2024-02-04T10:05:32;6.30;99.90
29547;DHT22;40782;47.264;11.330;2024-02-04T10:08:00;6.50;99.90
29547;DHT22;40782;47.264;11.330;2024-02-04T10:10:27;6.70;99.90
29547;DHT22;40782;47.264;11.330;2024-02-04T10:12:56;6.80;99.90
29547;DHT22;40782;47.264;11.330;2024-02-04T10:15:23;7.00;99.90
29547;DHT22;40782;47.264;11.330;2024-02-04T10:17:50;7.20;99.90
29547;DHT22;40782;47.264;11.330;2024-02-04T10:20:19;7.40;99.90
29547;DHT22;40782;47.264;11.330;2024-02-04T10:22:48;7.60;99.90
29547;DHT22;40782;47.264;11.330;2024-02-04T10:25:15;7.80;99.90
29547;DHT22;40782;47.264;11.330;2024-02-04T10:27:44;8.00;99.90
29547;DHT22;40782;47.264;11.330;2024-02-04T10:30:14;8.20;99.90
29547;DHT22;40782;47.264;11.330;2024-02-04T10:32:41;8.50;99.90
29547;DHT22;40782;47.264;11.330;2024-02-04T10:35:10;8.80;99.90
29547;DHT22;40782;47.264;11.330;2024-02-04T10:37:38;9.20;99.90
29547;DHT22;40782;47.264;11.330;2024-02-04T10:40:08;9.50;99.90
29547;DHT22;40782;47.264;11.330;2024-02-04T10:42:35;9.90;86.10
29547;DHT22;40782;47.264;11.330;2024-02-04T10:45:08;10.30;76.90
29547;DHT22;40782;47.264;11.330;2024-02-04T10:47:37;10.60;53.90
29547;DHT22;40782;47.264;11.330;2024-02-04T10:50:06;10.90;53.50
29547;DHT22;40782;47.264;11.330;2024-02-04T10:52:36;11.20;46.10
29547;DHT22;40782;47.264;11.330;2024-02-04T10:55:08;11.40;23.10
29547;DHT22;40782;47.264;11.330;2024-02-04T10:57:36;11.70;23.60
29547;DHT22;40782;47.264;11.330;2024-02-04T11:00:05;11.90;13.00
29547;DHT22;40782;47.264;11.330;2024-02-04T11:02:35;12.20;3.50
29547;DHT22;40782;47.264;11.330;2024-02-04T11:05:03;12.50;1.70
29547;DHT22;40782;47.264;11.330;2024-02-04T11:07:32;12.80;1.00
29547;DHT22;40782;47.264;11.330;2024-02-04T11:10:00;13.10;1.00
29547;DHT22;40782;47.264;11.330;2024-02-04T11:12:30;13.30;1.00
29547;DHT22;40782;47.264;11.330;2024-02-04T11:15:00;13.50;1.00
29547;DHT22;40782;47.264;11.330;2024-02-04T11:17:54;13.70;1.00
29547;DHT22;40782;47.264;11.330;2024-02-04T11:20:35;14.00;1.00
29547;DHT22;40782;47.264;11.330;2024-02-04T11:23:22;14.30;1.00
29547;DHT22;40782;47.264;11.330;2024-02-04T11:25:56;14.70;1.00
29547;DHT22;40782;47.264;11.330;2024-02-04T11:28:26;15.10;1.00
29547;DHT22;40782;47.264;11.330;2024-02-04T11:30:53;15.50;1.00
29547;DHT22;40782;47.264;11.330;2024-02-04T11:33:21;15.80;1.00
29547;DHT22;40782;47.264;11.330;2024-02-04T11:36:00;15.90;1.00
29547;DHT22;40782;47.264;11.330;2024-02-04T11:38:31;16.20;1.00
29547;DHT22;40782;47.264;11.330;2024-02-04T11:40:59;16.40;1.00
29547;DHT22;40782;47.264;11.330;2024-02-04T11:43:29;16.70;1.00
29547;DHT22;40782;47.264;11.330;2024-02-04T11:45:56;17.00;1.00
29547;DHT22;40782;47.264;11.330;2024-02-04T11:48:29;17.20;1.00
29547;DHT22;40782;47.264;11.330;2024-02-04T11:50:58;17.40;1.00
29547;DHT22;40782;47.264;11.330;2024-02-04T11:53:27;17.70;1.00
29547;DHT22;40782;47.264;11.330;2024-02-04T11:55:58;18.00;1.00
29547;DHT22;40782;47.264;11.330;2024-02-04T11:58:30;18.40;1.00
29547;DHT22;40782;47.264;11.330;2024-02-04T12:00:57;18.50;1.00
29547;DHT22;40782;47.264;11.330;2024-02-04T12:03:31;18.50;1.00
29547;DHT22;40782;47.264;11.330;2024-02-04T12:05:59;18.70;1.00
29547;DHT22;40782;47.264;11.330;2024-02-04T12:08:28;19.00;1.00
29547;DHT22;40782;47.264;11.330;2024-02-04T12:10:56;19.20;1.00
29547;DHT22;40782;47.264;11.330;2024-02-04T12:13:24;19.50;1.00
29547;DHT22;40782;47.264;11.330;2024-02-04T12:15:53;19.60;1.00
29547;DHT22;40782;47.264;11.330;2024-02-04T12:18:20;19.80;1.00
29547;DHT22;40782;47.264;11.330;2024-02-04T12:20:48;20.00;1.00
29547;DHT22;40782;47.264;11.330;2024-02-04T12:23:16;20.30;1.00
29547;DHT22;40782;47.264;11.330;2024-02-04T12:25:44;20.60;1.00
29547;DHT22;40782;47.264;11.330;2024-02-04T12:28:14;20.80;1.00
29547;DHT22;40782;47.264;11.330;2024-02-04T12:30:41;21.10;1.00
29547;DHT22;40782;47.264;11.330;2024-02-04T12:33:23;21.20;1.00
29547;DHT22;40782;47.264;11.330;2024-02-04T12:35:50;21.50;1.00
29547;DHT22;40782;47.264;11.330;2024-02-04T12:38:18;21.90;1.00
29547;DHT22;40782;47.264;11.330;2024-02-04T12:40:46;21.90;1.00
29547;DHT22;40782;47.264;11.330;2024-02-04T12:43:13;21.70;1.00
29547;DHT22;40782;47.264;11.330;2024-02-04T12:45:43;21.80;1.00
29547;DHT22;40782;47.264;11.330;2024-02-04T12:48:14;22.00;1.00
29547;DHT22;40782;47.264;11.330;2024-02-04T12:50:45;22.10;1.00
29547;DHT22;40782;47.264;11.330;2024-02-04T12:53:12;22.30;1.00
29547;DHT22;40782;47.264;11.330;2024-02-04T12:55:41;22.70;1.00
29547;DHT22;40782;47.264;11.330;2024-02-04T12:58:09;22.80;1.00
29547;DHT22;40782;47.264;11.330;2024-02-04T13:00:38;22.80;1.00
29547;DHT22;40782;47.264;11.330;2024-02-04T13:03:06;22.90;1.00
29547;DHT22;40782;47.264;11.330;2024-02-04T13:05:33;23.00;1.00
29547;DHT22;40782;47.264;11.330;2024-02-04T13:08:06;23.10;1.00
29547;DHT22;40782;47.264;11.330;2024-02-04T13:10:34;23.40;1.00
29547;DHT22;40782;47.264;11.330;2024-02-04T13:13:03;24.00;1.00
29547;DHT22;40782;47.264;11.330;2024-02-04T13:15:32;24.40;1.00
29547;DHT22;40782;47.264;11.330;2024-02-04T13:17:59;24.90;1.00
29547;DHT22;40782;47.264;11.330;2024-02-04T13:20:27;25.50;1.00
29547;DHT22;40782;47.264;11.330;2024-02-04T13:22:54;25.80;1.00
29547;DHT22;40782;47.264;11.330;2024-02-04T13:25:23;25.70;1.00
29547;DHT22;40782;47.264;11.330;2024-02-04T13:27:50;25.60;1.00
29547;DHT22;40782;47.264;11.330;2024-02-04T13:30:17;25.60;1.00
29547;DHT22;40782;47.264;11.330;2024-02-04T13:32:45;25.70;1.00
29547;DHT22;40782;47.264;11.330;2024-02-04T13:35:12;25.70;1.00
29547;DHT22;40782;47.264;11.330;2024-02-04T13:37:44;25.30;1.00
29547;DHT22;40782;47.264;11.330;2024-02-04T13:40:14;24.70;1.00
29547;DHT22;40782;47.264;11.330;2024-02-04T13:42:43;24.50;1.00
29547;DHT22;40782;47.264;11.330;2024-02-04T13:45:12;24.70;1.00
29547;DHT22;40782;47.264;11.330;2024-02-04T13:47:40;24.80;1.00
29547;DHT22;40782;47.264;11.330;2024-02-04T13:50:09;25.00;1.00
29547;DHT22;40782;47.264;11.330;2024-02-04T13:52:36;25.40;1.00
29547;DHT22;40782;47.264;11.330;2024-02-04T13:55:04;25.80;1.00
29547;DHT22;40782;47.264;11.330;2024-02-04T13:57:32;25.80;1.00
29547;DHT22;40782;47.264;11.330;2024-02-04T14:00:01;25.40;1.00
29547;DHT22;40782;47.264;11.330;2024-02-04T14:02:30;25.00;1.00
29547;DHT22;40782;47.264;11.330;2024-02-04T14:04:58;24.50;1.00
29547;DHT22;40782;47.264;11.330;2024-02-04T14:07:25;24.40;1.00
29547;DHT22;40782;47.264;11.330;2024-02-04T14:09:52;24.30;1.00
29547;DHT22;40782;47.264;11.330;2024-02-04T14:12:19;23.90;1.00
29547;DHT22;40782;47.264;11.330;2024-02-04T14:14:46;23.20;1.00
29547;DHT22;40782;47.264;11.330;2024-02-04T14:17:15;22.60;1.00
29547;DHT22;40782;47.264;11.330;2024-02-04T14:19:42;22.20;1.00
29547;DHT22;40782;47.264;11.330;2024-02-04T14:22:11;21.80;1.00
29547;DHT22;40782;47.264;11.330;2024-02-04T14:24:39;21.60;1.00
29547;DHT22;40782;47.264;11.330;2024-02-04T14:27:06;21.40;1.00
29547;DHT22;40782;47.264;11.330;2024-02-04T14:29:33;21.30;1.00
29547;DHT22;40782;47.264;11.330;2024-02-04T14:32:00;20.90;1.00
29547;DHT22;40782;47.264;11.330;2024-02-04T14:34:29;20.50;1.00
29547;DHT22;40782;47.264;11.330;2024-02-04T14:36:56;20.50;1.00
29547;DHT22;40782;47.264;11.330;2024-02-04T14:39:23;20.50;1.00
29547;DHT22;40782;47.264;11.330;2024-02-04T14:41:50;20.40;1.00
29547;DHT22;40782;47.264;11.330;2024-02-04T14:44:19;20.50;1.00
29547;DHT22;40782;47.264;11.330;2024-02-04T14:46:46;20.60;1.00
29547;DHT22;40782;47.264;11.330;2024-02-04T14:49:14;20.70;1.00
29547;DHT22;40782;47.264;11.330;2024-02-04T14:51:42;20.50;1.00
29547;DHT22;40782;47.264;11.330;2024-02-04T14:54:10;20.40;1.00
29547;DHT22;40782;47.264;11.330;2024-02-04T14:56:37;20.30;1.00
29547;DHT22;40782;47.264;11.330;2024-02-04T14:59:05;20.10;1.00
29547;DHT22;40782;47.264;11.330;2024-02-04T15:01:33;20.20;1.00
29547;DHT22;40782;47.264;11.330;2024-02-04T15:04:00;20.00;1.00
29547;DHT22;40782;47.264;11.330;2024-02-04T15:06:28;19.90;1.00
29547;DHT22;40782;47.264;11.330;2024-02-04T15:08:57;19.90;1.00
29547;DHT22;40782;47.264;11.330;2024-02-04T15:11:25;19.80;1.00
29547;DHT22;40782;47.264;11.330;2024-02-04T15:13:52;19.70;1.00
29547;DHT22;40782;47.264;11.330;2024-02-04T15:16:20;19.80;1.00
29547;DHT22;40782;47.264;11.330;2024-02-04T15:18:48;19.90;1.00
29547;DHT22;40782;47.264;11.330;2024-02-04T15:21:16;20.00;1.00
29547;DHT22;40782;47.264;11.330;2024-02-04T15:23:44;20.00;1.00
29547;DHT22;40782;47.264;11.330;2024-02-04T15:26:14;19.90;1.00
29547;DHT22;40782;47.264;11.330;2024-02-04T15:28:42;19.90;1.00
29547;DHT22;40782;47.264;11.330;2024-02-04T15:31:11;19.90;1.00
29547;DHT22;40782;47.264;11.330;2024-02-04T15:33:38;19.80;1.00
29547;DHT22;40782;47.264;11.330;2024-02-04T15:36:07;19.70;1.00